Terminal Aerodrome Forecast
Issued by NWS Shreveport, LA

Home | Current Version | Previous Version | Text Only | Print | Product List | Glossary On
Versions: 1 2 3 4 5 6 7 8 9 10 11 12 13 14 15 16
000
FTUS44 KSHV 290526
TAFELD
TAF
KELD 290526Z 2906/3006 07008KT P6SM SKC
      TEMPO 2910/2914 5SM BR OVC015
     FM291400 14006KT P6SM SCT015 BKN035
     FM291800 19012G18KT P6SM SCT050
     FM300000 19005KT P6SM SKC=

USA.gov is the U.S. government's official web portal to all federal, state and local government web resources and services.